createdAt,value
2019-02-19T00:02:22.682Z,4.78
2019-02-19T00:04:51.095Z,4.79
2019-02-19T00:07:19.498Z,4.76
2019-02-19T00:09:47.918Z,4.80
2019-02-19T00:12:16.337Z,4.72
2019-02-19T00:14:44.756Z,4.65
2019-02-19T00:17:13.167Z,4.62
2019-02-19T00:19:41.640Z,4.65
2019-02-19T00:22:10.072Z,4.71
2019-02-19T00:24:38.494Z,4.85
2019-02-19T00:27:06.915Z,4.87
2019-02-19T00:29:35.333Z,4.86
2019-02-19T00:32:03.751Z,4.91
2019-02-19T00:34:32.153Z,4.81
2019-02-19T00:37:00.553Z,4.83
2019-02-19T00:39:28.988Z,4.75
2019-02-19T00:41:57.392Z,4.69
2019-02-19T00:44:25.787Z,4.73
2019-02-19T00:46:54.258Z,4.65
2019-02-19T00:49:22.725Z,4.63
2019-02-19T00:51:51.164Z,4.57
2019-02-19T00:54:19.618Z,4.60
2019-02-19T00:56:48.034Z,4.59
2019-02-19T00:59:16.446Z,4.59
2019-02-19T01:01:44.948Z,4.70
2019-02-19T01:04:13.436Z,4.70
2019-02-19T01:06:41.834Z,4.73
2019-02-19T01:09:10.705Z,4.67
2019-02-19T01:11:39.190Z,4.61
2019-02-19T01:14:07.667Z,4.63
2019-02-19T01:16:36.149Z,4.68
2019-02-19T01:19:04.715Z,4.73
2019-02-19T01:21:33.125Z,4.67
2019-02-19T01:24:01.551Z,4.65
2019-02-19T01:26:29.952Z,4.72
2019-02-19T01:28:58.463Z,4.75
2019-02-19T01:31:26.875Z,4.72
2019-02-19T01:33:55.274Z,4.71
2019-02-19T01:36:23.746Z,4.71
2019-02-19T01:38:52.175Z,4.71
2019-02-19T01:41:20.635Z,4.75
2019-02-19T01:43:49.101Z,4.73
2019-02-19T01:46:17.512Z,4.70
2019-02-19T01:48:45.897Z,4.60
2019-02-19T01:51:14.471Z,4.58
2019-02-19T01:53:42.866Z,4.68
2019-02-19T01:56:11.281Z,4.76
2019-02-19T01:58:39.677Z,4.89
2019-02-19T02:01:08.089Z,4.94
2019-02-19T02:03:36.500Z,5.02
2019-02-19T02:06:05.054Z,5.40
2019-02-19T02:08:33.453Z,5.69
2019-02-19T02:11:01.861Z,5.80
2019-02-19T02:13:30.258Z,5.92
2019-02-19T02:15:58.683Z,5.97
2019-02-19T02:18:27.078Z,6.10
2019-02-19T02:20:55.560Z,6.09
2019-02-19T02:23:23.957Z,6.05
2019-02-19T02:25:52.381Z,5.98
2019-02-19T02:28:20.922Z,5.93
2019-02-19T02:30:49.324Z,6.03
2019-02-19T02:33:17.750Z,6.09
2019-02-19T02:35:46.145Z,6.28
2019-02-19T02:38:14.574Z,6.42
2019-02-19T02:40:42.962Z,6.53
2019-02-19T02:43:11.359Z,6.52
2019-02-19T02:45:39.781Z,6.43
2019-02-19T02:48:08.196Z,6.53
2019-02-19T02:50:36.637Z,6.58
2019-02-19T02:53:05.045Z,6.70
2019-02-19T02:55:33.473Z,6.79
2019-02-19T02:58:01.874Z,6.86
2019-02-19T03:00:30.306Z,6.84
2019-02-19T03:02:58.715Z,6.86
2019-02-19T03:05:27.146Z,6.91
2019-02-19T03:07:57.179Z,6.92
2019-02-19T03:10:25.582Z,6.96
2019-02-19T03:12:54.004Z,6.99
2019-02-19T03:15:22.474Z,6.95
2019-02-19T03:17:50.914Z,6.92
2019-02-19T03:20:19.323Z,6.94
2019-02-19T03:22:47.757Z,6.92
2019-02-19T03:25:16.168Z,6.91
2019-02-19T03:27:44.593Z,6.87
2019-02-19T03:30:13.096Z,6.89
2019-02-19T03:32:41.487Z,6.91
2019-02-19T03:35:09.909Z,6.92
2019-02-19T03:37:38.339Z,6.92
2019-02-19T03:40:07.979Z,6.97
2019-02-19T03:42:36.523Z,7.03
2019-02-19T03:45:07.069Z,7.00
2019-02-19T03:47:35.482Z,6.99
2019-02-19T03:50:05.244Z,3.98
2019-02-19T03:52:33.658Z,7.00
2019-02-19T03:55:02.194Z,6.98
2019-02-19T03:57:30.789Z,6.97
2019-02-19T03:59:59.274Z,6.92
2019-02-19T04:02:27.742Z,6.89
2019-02-19T04:04:56.234Z,6.87
2019-02-19T04:07:24.641Z,6.86
2019-02-19T04:09:53.069Z,6.85
2019-02-19T04:12:21.466Z,6.85
2019-02-19T04:14:49.894Z,6.83
2019-02-19T04:17:18.303Z,6.83
2019-02-19T04:19:46.726Z,6.80
2019-02-19T04:22:15.141Z,6.77
2019-02-19T04:24:43.563Z,6.74
2019-02-19T04:27:11.970Z,6.71
2019-02-19T04:29:40.384Z,6.70
2019-02-19T04:32:08.815Z,6.69
2019-02-19T04:34:37.250Z,6.65
2019-02-19T04:37:05.669Z,6.61
2019-02-19T04:39:34.077Z,6.56
2019-02-19T04:42:02.497Z,6.55
2019-02-19T04:44:30.904Z,6.56
2019-02-19T04:46:59.396Z,6.52
2019-02-19T04:49:27.801Z,6.51
2019-02-19T04:51:56.232Z,6.51
2019-02-19T04:54:24.650Z,6.50
2019-02-19T04:56:53.062Z,6.48
2019-02-19T04:59:21.480Z,6.49
2019-02-19T05:01:49.891Z,6.49
2019-02-19T05:04:18.322Z,6.48
2019-02-19T05:06:46.748Z,6.47
2019-02-19T05:09:15.168Z,6.46
2019-02-19T05:11:43.579Z,6.49
2019-02-19T05:14:12.000Z,6.46
2019-02-19T05:16:41.177Z,6.46
2019-02-19T05:19:09.938Z,6.44
2019-02-19T05:21:38.337Z,6.44
2019-02-19T05:24:06.949Z,6.45
2019-02-19T05:26:35.358Z,6.47
2019-02-19T05:29:03.756Z,6.49
2019-02-19T05:31:32.184Z,6.52
2019-02-19T05:34:00.592Z,6.54
2019-02-19T05:36:29.032Z,6.53
2019-02-19T05:38:57.433Z,6.58
2019-02-19T05:41:25.874Z,6.60
2019-02-19T05:43:54.250Z,6.61
2019-02-19T05:46:22.659Z,6.61
2019-02-19T05:48:54.032Z,6.59
2019-02-19T05:51:22.429Z,6.56
2019-02-19T05:53:50.858Z,6.59
2019-02-19T05:56:19.268Z,6.59
2019-02-19T05:58:47.673Z,6.62
2019-02-19T06:01:16.095Z,6.62
2019-02-19T06:03:44.515Z,6.62
2019-02-19T06:06:12.925Z,6.61
2019-02-19T06:08:41.322Z,6.61
2019-02-19T06:11:09.745Z,6.60
2019-02-19T06:13:38.144Z,6.63
2019-02-19T06:16:06.569Z,6.64
2019-02-19T06:18:34.969Z,6.63
2019-02-19T06:21:03.390Z,6.62
2019-02-19T06:23:31.883Z,6.61
2019-02-19T06:26:00.301Z,6.61
2019-02-19T06:28:28.720Z,6.61
2019-02-19T06:30:57.131Z,6.68
2019-02-19T06:33:25.599Z,6.64
2019-02-19T06:35:54.018Z,6.65
2019-02-19T06:38:22.493Z,6.64
2019-02-19T06:40:50.995Z,6.66
2019-02-19T06:43:19.401Z,6.65
2019-02-19T06:45:47.821Z,6.63
2019-02-19T06:48:16.236Z,6.59
2019-02-19T06:50:44.646Z,6.57
2019-02-19T06:53:13.049Z,6.53
2019-02-19T06:55:41.478Z,6.55
2019-02-19T06:58:09.873Z,6.56
2019-02-19T07:00:38.280Z,6.56
2019-02-19T07:03:24.503Z,6.56
2019-02-19T07:05:52.933Z,6.61
2019-02-19T07:08:21.340Z,6.64
2019-02-19T07:10:50.137Z,6.61
2019-02-19T07:13:18.538Z,6.64
2019-02-19T07:15:47.022Z,6.63
2019-02-19T07:18:15.436Z,6.66
2019-02-19T07:20:43.854Z,6.64
2019-02-19T07:23:12.260Z,6.63
2019-02-19T07:25:40.685Z,6.59
2019-02-19T07:28:09.109Z,6.61
2019-02-19T07:30:37.520Z,6.66
2019-02-19T07:33:05.955Z,6.67
2019-02-19T07:35:34.365Z,6.65
2019-02-19T07:38:02.840Z,6.65
2019-02-19T07:40:31.266Z,6.63
2019-02-19T07:42:59.688Z,6.64
2019-02-19T07:45:28.108Z,6.67
2019-02-19T07:47:56.541Z,6.66
2019-02-19T07:50:24.965Z,6.69
2019-02-19T07:52:53.365Z,6.72
2019-02-19T07:55:21.790Z,6.74
2019-02-19T07:57:50.194Z,6.76
2019-02-19T08:00:18.606Z,6.77
2019-02-19T08:02:47.035Z,6.81
2019-02-19T08:05:15.498Z,6.85
2019-02-19T08:07:43.933Z,6.87
2019-02-19T08:10:12.674Z,6.87
2019-02-19T08:12:41.097Z,6.87
2019-02-19T08:15:11.054Z,6.88
2019-02-19T08:17:39.542Z,6.90
2019-02-19T08:20:15.429Z,6.90
2019-02-19T08:22:39.595Z,6.89
2019-02-19T08:25:08.159Z,6.90
2019-02-19T08:27:36.572Z,6.89
2019-02-19T08:30:07.437Z,6.88
2019-02-19T08:32:35.860Z,6.87
2019-02-19T08:35:05.023Z,6.84
2019-02-19T08:37:33.438Z,6.82
2019-02-19T08:40:01.868Z,6.82
2019-02-19T08:42:30.346Z,6.81
2019-02-19T08:44:58.811Z,6.85
2019-02-19T08:47:27.232Z,6.84
2019-02-19T08:49:55.633Z,6.82
2019-02-19T08:52:24.066Z,6.86
2019-02-19T08:54:52.478Z,6.85
2019-02-19T08:57:20.951Z,6.87
2019-02-19T08:59:49.390Z,6.89
2019-02-19T09:02:17.880Z,6.96
2019-02-19T09:04:46.294Z,6.98
2019-02-19T09:07:14.703Z,7.01
2019-02-19T09:09:43.132Z,7.06
2019-02-19T09:12:11.680Z,7.09
2019-02-19T09:14:40.046Z,7.12
2019-02-19T09:17:08.450Z,7.16
2019-02-19T09:19:36.936Z,7.28
2019-02-19T09:22:05.407Z,7.31
2019-02-19T09:24:33.828Z,7.37
2019-02-19T09:27:02.235Z,7.43
2019-02-19T09:29:30.662Z,7.46
2019-02-19T09:31:59.078Z,7.52
2019-02-19T09:34:27.484Z,7.59
2019-02-19T09:36:55.911Z,7.66
2019-02-19T09:39:24.335Z,7.66
2019-02-19T09:41:52.789Z,7.64
2019-02-19T09:44:21.234Z,7.66
2019-02-19T09:46:49.661Z,7.66
2019-02-19T09:49:18.062Z,7.64
2019-02-19T09:51:46.542Z,7.67
2019-02-19T09:54:14.952Z,7.73
2019-02-19T09:56:43.359Z,7.72
2019-02-19T09:59:11.790Z,7.77
2019-02-19T10:01:40.658Z,7.90
2019-02-19T10:04:09.071Z,7.93
2019-02-19T10:06:37.544Z,7.99
2019-02-19T10:09:06.410Z,8.09
2019-02-19T10:11:34.818Z,8.07
2019-02-19T10:14:03.289Z,8.07
2019-02-19T10:16:31.716Z,8.09
2019-02-19T10:19:00.179Z,8.25
2019-02-19T10:21:28.776Z,8.23
2019-02-19T10:23:57.181Z,8.26
2019-02-19T10:26:25.587Z,8.38
2019-02-19T10:28:54.005Z,8.46
2019-02-19T10:31:22.406Z,8.47
2019-02-19T10:33:50.815Z,8.56
2019-02-19T10:36:19.309Z,8.55
2019-02-19T10:38:47.710Z,8.57
2019-02-19T10:41:16.125Z,8.52
2019-02-19T10:43:44.521Z,8.53
2019-02-19T10:46:12.944Z,8.51
2019-02-19T10:48:41.367Z,8.60
2019-02-19T10:51:09.756Z,8.73
2019-02-19T10:53:38.177Z,8.84
2019-02-19T10:56:06.652Z,8.89
2019-02-19T10:58:35.047Z,8.90
2019-02-19T11:01:03.447Z,8.83
2019-02-19T11:03:31.887Z,8.79
2019-02-19T11:06:00.285Z,8.89
2019-02-19T11:08:28.715Z,9.04
2019-02-19T11:10:57.119Z,9.09
2019-02-19T11:13:25.520Z,9.09
2019-02-19T11:15:53.946Z,9.12
2019-02-19T11:18:28.466Z,9.07
2019-02-19T11:20:52.544Z,9.00
2019-02-19T11:23:20.943Z,8.91
2019-02-19T11:25:49.364Z,8.95
2019-02-19T11:28:17.774Z,9.04
2019-02-19T11:30:46.196Z,9.08
2019-02-19T11:33:14.611Z,9.05
2019-02-19T11:35:42.998Z,9.07
2019-02-19T11:38:11.419Z,9.04
2019-02-19T11:40:39.829Z,9.06
2019-02-19T11:43:08.314Z,7.22
2019-02-19T11:45:36.707Z,9.09
2019-02-19T11:48:05.213Z,9.06
2019-02-19T11:50:33.634Z,9.04
2019-02-19T11:53:02.035Z,9.06
2019-02-19T11:55:30.482Z,9.12
2019-02-19T11:57:58.874Z,9.11
2019-02-19T12:00:44.292Z,9.10
2019-02-19T12:03:12.699Z,9.12
2019-02-19T12:05:41.148Z,9.18
2019-02-19T12:08:09.572Z,9.12
2019-02-19T12:10:37.968Z,9.09
2019-02-19T12:13:06.462Z,9.07
2019-02-19T12:15:35.604Z,9.02
2019-02-19T12:18:04.277Z,9.08
2019-02-19T12:20:32.687Z,9.08
2019-02-19T12:23:01.102Z,9.07
2019-02-19T12:25:29.513Z,9.09
2019-02-19T12:27:57.993Z,9.13
2019-02-19T12:30:26.436Z,9.18
2019-02-19T12:32:54.846Z,9.19
2019-02-19T12:35:23.333Z,9.20
2019-02-19T12:37:51.836Z,9.20
2019-02-19T12:40:20.236Z,9.22
2019-02-19T12:42:48.711Z,9.21
2019-02-19T12:45:17.202Z,9.25
2019-02-19T12:47:45.609Z,9.26
2019-02-19T12:50:18.556Z,9.30
2019-02-19T12:52:46.955Z,9.31
2019-02-19T12:55:15.419Z,9.27
2019-02-19T12:57:43.852Z,9.21
2019-02-19T13:00:15.026Z,9.24
2019-02-19T13:02:44.226Z,9.26
2019-02-19T13:05:14.126Z,9.32
2019-02-19T13:07:42.661Z,9.34
2019-02-19T13:10:12.201Z,9.44
2019-02-19T13:12:40.615Z,9.52
2019-02-19T13:15:12.107Z,9.56
2019-02-19T13:17:40.587Z,9.54
2019-02-19T13:20:14.353Z,9.42
2019-02-19T13:22:42.853Z,9.36
2019-02-19T13:25:11.996Z,9.57
2019-02-19T13:27:40.484Z,10.38
2019-02-19T13:30:17.429Z,10.40
2019-02-19T13:32:45.944Z,10.13
2019-02-19T13:35:14.447Z,10.07
2019-02-19T13:37:42.928Z,10.86
2019-02-19T13:40:13.667Z,10.70
2019-02-19T13:42:42.098Z,10.36
2019-02-19T13:45:13.464Z,10.57
2019-02-19T13:47:41.973Z,10.94
2019-02-19T13:50:13.631Z,11.20
2019-02-19T13:52:49.927Z,11.05
2019-02-19T13:55:19.958Z,11.30
2019-02-19T13:57:48.373Z,11.60
2019-02-19T14:00:18.600Z,11.15
2019-02-19T14:02:47.093Z,10.74
2019-02-19T14:05:15.525Z,10.68
2019-02-19T14:07:43.936Z,10.50
2019-02-19T14:10:12.917Z,10.37
2019-02-19T14:12:41.338Z,10.31
2019-02-19T14:15:16.045Z,10.30
2019-02-19T14:17:44.445Z,10.37
2019-02-19T14:20:14.507Z,10.36
2019-02-19T14:22:44.562Z,10.36
2019-02-19T14:25:26.631Z,10.34
2019-02-19T14:28:12.661Z,10.19
2019-02-19T14:30:42.771Z,10.06
2019-02-19T14:33:24.721Z,9.97
2019-02-19T14:36:09.827Z,9.90
2019-02-19T14:38:39.867Z,9.83
2019-02-19T14:41:26.264Z,10.03
2019-02-19T14:43:56.335Z,10.20
2019-02-19T14:46:29.255Z,10.12
2019-02-19T14:49:15.332Z,10.07
2019-02-19T14:51:57.153Z,10.07
2019-02-19T14:54:29.674Z,10.24
2019-02-19T14:57:42.606Z,10.47
2019-02-19T15:00:28.927Z,10.57
2019-02-19T15:03:15.159Z,10.59
2019-02-19T15:06:01.685Z,10.35
2019-02-19T15:08:31.751Z,10.33
2019-02-19T15:11:16.945Z,10.46
2019-02-19T15:13:47.050Z,10.45
2019-02-19T15:16:17.178Z,10.32
2019-02-19T15:18:52.942Z,10.37
2019-02-19T15:21:23.028Z,10.47
2019-02-19T15:23:56.267Z,10.50
2019-02-19T15:26:26.348Z,10.51
2019-02-19T15:29:02.280Z,10.41
2019-02-19T15:31:34.927Z,10.37
2019-02-19T15:34:07.021Z,10.43
2019-02-19T15:36:53.701Z,10.39
2019-02-19T15:42:24.685Z,10.40
2019-02-19T15:44:54.747Z,10.37
2019-02-19T15:47:24.796Z,10.34
2019-02-19T15:49:57.837Z,10.30
2019-02-19T15:52:27.887Z,10.28
2019-02-19T15:54:57.973Z,10.26
2019-02-19T15:57:33.928Z,10.20
2019-02-19T16:00:20.271Z,10.20
2019-02-19T16:02:59.167Z,10.12
2019-02-19T16:05:31.686Z,10.11
2019-02-19T16:08:04.743Z,10.02
2019-02-19T16:10:34.828Z,9.94
2019-02-19T16:13:08.055Z,9.86
2019-02-19T16:15:47.028Z,9.81
2019-02-19T16:18:19.931Z,9.78
2019-02-19T16:20:50.000Z,9.78
2019-02-19T16:23:20.058Z,9.70
2019-02-19T16:26:02.439Z,9.72
2019-02-19T16:28:35.707Z,9.69
2019-02-19T16:31:05.829Z,9.66
2019-02-19T16:33:41.520Z,9.63
2019-02-19T16:36:20.198Z,9.58
2019-02-19T16:38:53.045Z,9.53
2019-02-19T16:41:39.362Z,9.53
2019-02-19T16:44:15.139Z,9.48
2019-02-19T16:46:45.190Z,9.47
2019-02-19T16:49:18.009Z,9.45
2019-02-19T16:51:50.521Z,9.41
2019-02-19T16:54:32.315Z,9.38
2019-02-19T16:57:08.118Z,9.36
2019-02-19T16:59:53.279Z,9.29
2019-02-19T17:02:29.187Z,9.26
2019-02-19T17:05:01.975Z,9.18
2019-02-19T17:07:31.993Z,9.16
2019-02-19T17:10:20.403Z,9.13
2019-02-19T17:12:53.458Z,9.03
2019-02-19T17:15:23.618Z,8.98
2019-02-19T17:18:10.085Z,8.98
2019-02-19T17:20:58.453Z,8.96
2019-02-19T17:23:37.511Z,8.93
2019-02-19T17:26:13.498Z,8.87
2019-02-19T17:28:43.562Z,8.84
2019-02-19T17:31:25.843Z,8.82
2019-02-19T17:34:12.262Z,8.75
2019-02-19T17:36:42.392Z,8.70
2019-02-19T17:39:18.373Z,8.65
2019-02-19T17:41:57.334Z,8.63
2019-02-19T17:44:33.359Z,8.61
2019-02-19T17:47:14.412Z,8.59
2019-02-19T17:49:47.212Z,8.59
2019-02-19T17:52:32.163Z,8.58
2019-02-19T17:55:08.002Z,8.55
2019-02-19T17:57:44.104Z,8.53
2019-02-19T18:00:22.726Z,8.49
2019-02-19T18:02:58.346Z,8.48
2019-02-19T18:05:40.683Z,8.41
2019-02-19T18:08:25.551Z,8.36
2019-02-19T18:10:55.715Z,8.31
2019-02-19T18:13:42.035Z,8.30
2019-02-19T18:16:18.281Z,8.26
2019-02-19T18:18:53.006Z,8.21
2019-02-19T18:21:21.575Z,8.17
2019-02-19T18:23:50.066Z,8.12
2019-02-19T18:26:18.510Z,8.06
2019-02-19T18:28:46.899Z,7.98
2019-02-19T18:31:15.320Z,7.91
2019-02-19T18:33:43.824Z,7.87
2019-02-19T18:36:12.897Z,7.79
2019-02-19T18:38:41.361Z,7.79
2019-02-19T18:41:09.848Z,7.76
2019-02-19T18:43:38.293Z,7.74
2019-02-19T18:46:06.770Z,7.70
2019-02-19T18:48:35.192Z,7.70
2019-02-19T18:51:03.666Z,7.74
2019-02-19T18:53:32.107Z,7.77
2019-02-19T18:56:00.560Z,7.77
2019-02-19T18:58:29.127Z,7.74
2019-02-19T19:00:58.132Z,7.73
2019-02-19T19:03:26.604Z,7.73
2019-02-19T19:05:55.108Z,7.72
2019-02-19T19:08:23.506Z,7.70
2019-02-19T19:10:51.935Z,7.66
2019-02-19T19:13:20.414Z,7.66
2019-02-19T19:15:49.115Z,7.67
2019-02-19T19:18:19.197Z,7.68
2019-02-19T19:20:47.971Z,7.71
2019-02-19T19:23:16.360Z,7.70
2019-02-19T19:25:44.915Z,7.71
2019-02-19T19:28:13.409Z,7.69
2019-02-19T19:30:41.813Z,7.67
2019-02-19T19:33:10.241Z,7.66
2019-02-19T19:35:40.343Z,7.64
2019-02-19T19:38:08.812Z,7.62
2019-02-19T19:40:37.218Z,7.62
2019-02-19T19:43:05.674Z,7.61
2019-02-19T19:45:34.070Z,7.61
2019-02-19T19:48:02.601Z,7.61
2019-02-19T19:50:31.080Z,7.55
2019-02-19T19:52:59.564Z,7.48
2019-02-19T19:55:27.989Z,7.45
2019-02-19T19:57:56.457Z,7.43
2019-02-19T20:00:24.972Z,7.43
2019-02-19T20:02:53.451Z,7.44
2019-02-19T20:05:21.867Z,7.42
2019-02-19T20:07:50.311Z,7.40
2019-02-19T20:10:18.778Z,7.34
2019-02-19T20:12:47.214Z,7.30
2019-02-19T20:15:15.672Z,7.28
2019-02-19T20:17:44.062Z,7.23
2019-02-19T20:20:13.000Z,7.16
2019-02-19T20:22:41.418Z,7.15
2019-02-19T20:25:14.136Z,7.16
2019-02-19T20:27:42.591Z,7.09
2019-02-19T20:30:15.507Z,7.03
2019-02-19T20:32:44.000Z,7.02
2019-02-19T20:35:12.556Z,7.00
2019-02-19T20:37:41.284Z,6.94
2019-02-19T20:40:11.630Z,7.00
2019-02-19T20:42:40.143Z,6.96
2019-02-19T20:45:10.779Z,6.88
2019-02-19T20:47:39.209Z,6.81
2019-02-19T20:50:12.697Z,6.75
2019-02-19T20:52:41.174Z,6.72
2019-02-19T20:55:11.226Z,6.64
2019-02-19T20:57:39.662Z,6.59
2019-02-19T21:00:18.529Z,6.58
2019-02-19T21:02:47.497Z,6.60
2019-02-19T21:05:16.035Z,6.60
2019-02-19T21:07:45.299Z,6.60
2019-02-19T21:10:22.828Z,6.57
2019-02-19T21:12:51.260Z,6.56
2019-02-19T21:15:19.804Z,6.55
2019-02-19T21:17:48.273Z,6.55
2019-02-19T21:20:16.890Z,6.49
2019-02-19T21:22:45.382Z,6.53
2019-02-19T21:25:13.961Z,6.40
2019-02-19T21:27:42.353Z,6.38
2019-02-19T21:30:15.363Z,6.41
2019-02-19T21:32:43.791Z,6.37
2019-02-19T21:35:12.263Z,6.37
2019-02-19T21:37:40.681Z,6.40
2019-02-19T21:40:11.118Z,6.38
2019-02-19T21:42:39.548Z,6.34
2019-02-19T21:45:10.419Z,6.23
2019-02-19T21:47:38.848Z,6.26
2019-02-19T21:50:09.511Z,6.29
2019-02-19T21:52:37.923Z,6.23
2019-02-19T21:55:08.484Z,6.20
2019-02-19T21:57:36.991Z,6.23
2019-02-19T22:00:09.130Z,6.19
2019-02-19T22:02:37.593Z,6.19
2019-02-19T22:05:07.349Z,6.13
2019-02-19T22:07:35.760Z,6.05
2019-02-19T22:10:05.590Z,5.99
2019-02-19T22:12:33.995Z,5.95
2019-02-19T22:15:02.427Z,5.93
2019-02-19T22:17:30.922Z,5.88
2019-02-19T22:20:03.181Z,5.83
2019-02-19T22:22:29.727Z,5.79
2019-02-19T22:24:58.187Z,5.70
2019-02-19T22:27:26.598Z,5.59
2019-02-19T22:29:55.002Z,5.37
2019-02-19T22:32:23.435Z,5.34
2019-02-19T22:34:51.916Z,5.19
2019-02-19T22:37:20.347Z,5.16
2019-02-19T22:39:48.734Z,5.05
2019-02-19T22:42:17.231Z,4.99
2019-02-19T22:44:45.639Z,5.00
2019-02-19T22:47:14.051Z,4.93
2019-02-19T22:49:42.458Z,4.94
2019-02-19T22:52:12.839Z,4.99
2019-02-19T22:54:42.953Z,5.11
2019-02-19T22:57:11.440Z,4.98
2019-02-19T22:59:39.846Z,4.90
2019-02-19T23:02:10.152Z,4.84
2019-02-19T23:04:38.574Z,4.81
2019-02-19T23:07:07.042Z,4.70
2019-02-19T23:09:35.458Z,4.65
2019-02-19T23:12:03.849Z,4.65
2019-02-19T23:14:32.263Z,4.73
2019-02-19T23:17:00.667Z,4.78
2019-02-19T23:19:29.070Z,4.84
2019-02-19T23:21:57.531Z,4.78
2019-02-19T23:24:25.997Z,4.81
2019-02-19T23:26:54.434Z,4.73
2019-02-19T23:29:22.842Z,4.68
2019-02-19T23:31:51.262Z,4.66
2019-02-19T23:34:19.687Z,4.72
2019-02-19T23:36:49.730Z,4.55
2019-02-19T23:39:18.165Z,4.46
2019-02-19T23:41:46.573Z,4.45
2019-02-19T23:44:14.967Z,4.39
2019-02-19T23:46:44.074Z,4.39
2019-02-19T23:49:12.566Z,4.35
2019-02-19T23:51:41.066Z,4.35
2019-02-19T23:54:09.496Z,4.32
2019-02-19T23:56:37.920Z,4.27
2019-02-19T23:59:06.329Z,4.35
